EuroAirport Basel-Mulhouse-Freiburg Airport


Codes: LFSB/BSL
Name: EuroAirport Basel-Mulhouse-Freiburg Airport
City: Basel
Country: France
Elevation: 885 ft.
Website:
Wikipedia:

Photos at EuroAirport Basel-Mulhouse-Freiburg Airport


   Photos courtesy of SpottingLog. You can add your own sightings and photos by signing up for a free trial today.



9H-MTF, 14-Aug-2013
© Tobias Hottinger

N33WW, 14-Aug-2013
© Tobias Hottinger

HB-JZS, 28-Jun-2013
© Gianluca Lombardi

F-HBAO, 28-Jun-2013
© Gianluca Lombardi

G-EZIZ, 28-Jun-2013
© Gianluca Lombardi

G-EZIL, 28-Jun-2013
© Gianluca Lombardi

G-EZFG, 28-Jun-2013
© Gianluca Lombardi

G-EZEW, 28-Jun-2013
© Gianluca Lombardi

G-EZAG, 28-Jun-2013
© Gianluca Lombardi

F-HAPL, 28-Jun-2013
© Gianluca Lombardi

G-GJMB, 28-Jun-2013
© Gianluca Lombardi

HB-JOZ, 28-Jun-2013
© Gianluca Lombardi


Weather at EuroAirport Basel-Mulhouse-Freiburg Airport


Time (UTC)DescriptionTempratureWindCloud coverageVisibilityPressureHumidity
21-Jun-2024 12:00Light Rain22°C0 mph, SE0%4214m1013hPa68%
21-Jun-2024 15:00Heavy Intensity Rain21°C2 mph, W33%503m1014hPa77%
21-Jun-2024 18:00Moderate Rain19°C4 mph, S67%10000m1015hPa84%
21-Jun-2024 21:00Light Rain15°C4 mph, SW100%10000m1018hPa95%
22-Jun-2024 00:00Light Rain14°C4 mph, S100%10000m1018hPa95%
22-Jun-2024 03:00Overcast Clouds14°C2 mph, S93%10000m1017hPa94%
22-Jun-2024 06:00Broken Clouds16°C2 mph, S78%10000m1018hPa89%
22-Jun-2024 09:00Light Rain15°C7 mph, W100%10000m1018hPa94%
22-Jun-2024 12:00Light Rain14°C7 mph, W100%10000m1018hPa94%
22-Jun-2024 15:00Light Rain16°C4 mph, W80%10000m1017hPa82%
22-Jun-2024 18:00Light Rain16°C0 mph, NW82%10000m1016hPa91%
22-Jun-2024 21:00Light Rain14°C4 mph, S100%10000m1017hPa96%
23-Jun-2024 00:00Light Rain13°C2 mph, SE100%10000m1017hPa95%
23-Jun-2024 03:00Overcast Clouds12°C0 mph, W98%10000m1016hPa96%
23-Jun-2024 06:00Broken Clouds13°C2 mph, N84%10000m1017hPa95%
23-Jun-2024 09:00Light Rain17°C2 mph, N85%10000m1017hPa82%
23-Jun-2024 12:00Light Rain18°C7 mph, N93%10000m1017hPa86%
23-Jun-2024 15:00Light Rain19°C7 mph, N100%10000m1016hPa87%
23-Jun-2024 18:00Light Rain18°C4 mph, NE73%10000m1016hPa87%
23-Jun-2024 21:00Light Rain14°C0 mph, E21%10000m1017hPa92%
24-Jun-2024 00:00Few Clouds13°C2 mph, SE20%10000m1017hPa94%
24-Jun-2024 03:00Broken Clouds14°C2 mph, N69%10000m1017hPa94%
24-Jun-2024 06:00Broken Clouds14°C2 mph, N79%10000m1016hPa96%
24-Jun-2024 09:00Overcast Clouds17°C4 mph, N100%8982m1016hPa91%
24-Jun-2024 12:00Light Rain22°C4 mph, E100%10000m1014hPa78%
24-Jun-2024 15:00Light Rain23°C9 mph, E75%10000m1013hPa74%
24-Jun-2024 18:00Light Rain21°C4 mph, NE73%10000m1013hPa83%
24-Jun-2024 21:00Light Rain18°C0 mph, S60%10000m1013hPa87%
25-Jun-2024 00:00Broken Clouds17°C2 mph, NW81%10000m1013hPa93%
25-Jun-2024 03:00Overcast Clouds16°C2 mph, NW98%10000m1012hPa97%
25-Jun-2024 06:00Overcast Clouds17°C2 mph, NW99%10000m1012hPa95%
25-Jun-2024 09:00Overcast Clouds20°C4 mph, N93%10000m1011hPa81%
25-Jun-2024 12:00Light Rain22°C4 mph, N96%10000m1010hPa76%
25-Jun-2024 15:00Light Rain22°C2 mph, N68%2784m1009hPa87%
25-Jun-2024 18:00Moderate Rain21°C0 mph, SE39%8793m1008hPa91%
25-Jun-2024 21:00Light Rain17°C2 mph, S34%10000m1008hPa93%
26-Jun-2024 00:00Scattered Clouds16°C4 mph, S42%10000m1007hPa94%
26-Jun-2024 03:00Light Rain16°C4 mph, SE69%10000m1007hPa95%
26-Jun-2024 06:00Light Rain19°C4 mph, SE76%10000m1007hPa91%
26-Jun-2024 09:00Light Rain22°C4 mph, W64%10000m1006hPa80%